Time;durP1;ratioP1;P1;durP2;ratioP2;P2;SDS_P1;SDS_P2;PMS_P1;PMS_P2;Temp;Humidity;BMP_temperature;BMP_pressure;BME280_temperature;BME280_humidity;BME280_pressure;Samples;Min_cycle;Max_cycle;Signal;HPM_P1;HPM_P2
2022/03/06 00:00:21;;;;;;;12.20;8.80;;;-0.10;76.70;;;;;;5090566;28;20228;-80
2022/03/06 00:02:48;;;;;;;14.70;9.32;;;-0.20;76.90;;;;;;5090203;28;20234;-80
2022/03/06 00:05:15;;;;;;;15.07;9.52;;;-0.10;77.40;;;;;;5091061;28;20213;-80
2022/03/06 00:07:43;;;;;;;18.58;9.98;;;-0.10;77.90;;;;;;5090760;28;20570;-81
2022/03/06 00:10:11;;;;;;;13.98;9.57;;;0.00;78.20;;;;;;5090674;28;20295;-81
2022/03/06 00:12:37;;;;;;;12.35;9.35;;;0.00;78.30;;;;;;5090402;28;20225;-81
2022/03/06 00:15:05;;;;;;;14.55;10.48;;;-0.20;78.30;;;;;;5090572;28;20208;-80
2022/03/06 00:17:32;;;;;;;15.68;11.18;;;-0.20;78.80;;;;;;5090354;28;20198;-80
2022/03/06 00:20:00;;;;;;;14.48;10.50;;;-0.20;78.80;;;;;;5088375;28;20204;-80
2022/03/06 00:22:27;;;;;;;11.60;9.70;;;-0.20;79.10;;;;;;5089550;28;20258;-81
2022/03/06 00:24:56;;;;;;;14.10;10.15;;;-0.20;79.20;;;;;;5090390;28;20205;-80
2022/03/06 00:27:23;;;;;;;16.75;10.98;;;-0.20;79.40;;;;;;5089827;28;20194;-80
2022/03/06 00:29:49;;;;;;;16.58;10.43;;;-0.20;79.80;;;;;;5089936;28;20672;-80
2022/03/06 00:32:16;;;;;;;22.70;11.32;;;-0.30;80.30;;;;;;5088929;28;20598;-81
2022/03/06 00:34:44;;;;;;;15.38;10.65;;;-0.40;80.90;;;;;;5089522;28;20213;-80
2022/03/06 00:37:11;;;;;;;15.20;9.43;;;-0.40;81.40;;;;;;5088685;28;20205;-80
2022/03/06 00:39:38;;;;;;;13.00;9.73;;;-0.40;81.60;;;;;;5090058;28;20216;-81
2022/03/06 00:42:07;;;;;;;16.50;8.32;;;-0.40;81.70;;;;;;5088862;28;20232;-80
2022/03/06 00:44:35;;;;;;;14.88;9.68;;;-0.40;82.10;;;;;;5089291;28;20197;-81
2022/03/06 00:47:02;;;;;;;10.40;8.95;;;-0.40;82.40;;;;;;5089288;28;20291;-80
2022/03/06 00:49:29;;;;;;;14.52;10.05;;;-0.30;83.00;;;;;;5089498;28;20686;-80
2022/03/06 00:51:55;;;;;;;12.32;8.65;;;-0.30;82.90;;;;;;5088677;28;20228;-80
2022/03/06 00:54:22;;;;;;;10.02;8.50;;;-0.30;83.00;;;;;;5089419;28;20205;-80
2022/03/06 00:56:49;;;;;;;8.15;6.30;;;-0.30;83.20;;;;;;5088568;28;20207;-80
2022/03/06 00:59:17;;;;;;;10.75;7.20;;;-0.20;83.60;;;;;;5088207;28;20213;-81
2022/03/06 01:01:44;;;;;;;11.80;8.50;;;-0.20;83.60;;;;;;5087805;28;20220;-81
2022/03/06 01:04:10;;;;;;;12.77;8.45;;;-0.20;83.50;;;;;;5087932;28;20206;-81
2022/03/06 01:06:37;;;;;;;11.30;8.20;;;-0.20;83.80;;;;;;5087869;28;20205;-81
2022/03/06 01:09:04;;;;;;;10.23;6.95;;;-0.20;83.90;;;;;;5087746;28;20197;-80
2022/03/06 01:11:31;;;;;;;12.63;8.48;;;-0.20;84.10;;;;;;5088246;28;20666;-81
2022/03/06 01:13:58;;;;;;;11.52;7.80;;;-0.10;84.00;;;;;;5088917;28;20221;-80
2022/03/06 01:16:26;;;;;;;12.38;9.10;;;-0.10;83.90;;;;;;5088505;28;20388;-80
2022/03/06 01:18:53;;;;;;;12.77;8.57;;;-0.10;84.20;;;;;;5088331;28;20204;-81
2022/03/06 01:21:19;;;;;;;11.35;7.78;;;0.00;83.90;;;;;;5089093;28;20217;-80
2022/03/06 01:23:46;;;;;;;11.32;8.93;;;0.00;84.00;;;;;;5088105;28;20221;-81
2022/03/06 01:26:13;;;;;;;8.73;7.80;;;0.00;83.80;;;;;;5088725;28;20224;-81
2022/03/06 01:28:40;;;;;;;16.08;8.05;;;0.00;83.90;;;;;;5088035;28;20211;-81
2022/03/06 01:31:06;;;;;;;12.75;8.13;;;0.10;84.00;;;;;;5088047;28;20201;-80
2022/03/06 01:33:34;;;;;;;13.30;8.15;;;0.10;83.90;;;;;;5088306;28;20221;-80
2022/03/06 01:36:01;;;;;;;10.80;7.57;;;0.10;84.60;;;;;;5087247;28;20208;-81
2022/03/06 01:38:28;;;;;;;13.05;8.88;;;0.20;83.80;;;;;;5089453;28;20223;-81
2022/03/06 01:40:54;;;;;;;12.35;8.48;;;0.10;83.70;;;;;;5088814;28;20733;-81
2022/03/06 01:43:21;;;;;;;11.95;7.40;;;0.10;84.00;;;;;;5089083;28;20244;-81
2022/03/06 01:45:48;;;;;;;12.93;8.45;;;0.10;84.00;;;;;;5089163;28;20208;-81
2022/03/06 01:48:15;;;;;;;12.70;8.98;;;0.10;84.00;;;;;;5088669;28;20200;-81
2022/03/06 01:50:44;;;;;;;11.43;7.38;;;0.10;84.20;;;;;;5089019;28;20209;-81
2022/03/06 01:53:13;;;;;;;9.55;7.63;;;0.10;84.30;;;;;;5088380;28;20217;-80
2022/03/06 01:55:40;;;;;;;12.63;8.57;;;0.00;84.50;;;;;;5088675;28;20197;-80
2022/03/06 01:58:09;;;;;;;13.30;7.35;;;-0.10;85.00;;;;;;5087770;28;20205;-79
2022/03/06 02:00:39;;;;;;;11.50;8.52;;;-0.20;85.30;;;;;;5087730;28;20201;-80
2022/03/06 02:03:06;;;;;;;9.05;7.55;;;-0.20;85.70;;;;;;5088275;28;20271;-80
2022/03/06 02:05:33;;;;;;;12.95;7.80;;;-0.20;85.80;;;;;;5087902;28;20654;-80
2022/03/06 02:08:01;;;;;;;9.68;7.55;;;-0.10;85.70;;;;;;5088659;28;20212;-80
2022/03/06 02:10:28;;;;;;;10.63;7.88;;;-0.10;85.60;;;;;;5086906;28;20213;-80
2022/03/06 02:12:55;;;;;;;11.95;8.60;;;-0.10;85.80;;;;;;5087089;28;20227;-80
2022/03/06 02:15:22;;;;;;;10.65;8.02;;;-0.10;86.10;;;;;;5088127;28;20201;-80
2022/03/06 02:17:48;;;;;;;12.30;8.75;;;-0.10;86.20;;;;;;5087870;28;20817;-80
2022/03/06 02:20:18;;;;;;;16.85;8.93;;;-0.10;86.20;;;;;;5087092;28;20207;-80
2022/03/06 02:22:47;;;;;;;14.48;8.85;;;-0.10;86.50;;;;;;5087835;28;20232;-80
2022/03/06 02:25:17;;;;;;;11.05;7.60;;;-0.10;86.80;;;;;;5088324;28;20209;-80
2022/03/06 02:27:43;;;;;;;16.55;9.90;;;-0.10;87.10;;;;;;5086973;28;20205;-81
2022/03/06 02:30:12;;;;;;;10.25;7.95;;;0.00;87.50;;;;;;5087215;28;20202;-80
2022/03/06 02:32:40;;;;;;;14.20;8.40;;;0.00;87.60;;;;;;5087805;28;20220;-81
2022/03/06 02:35:08;;;;;;;11.90;8.70;;;0.00;87.60;;;;;;5087521;28;20212;-81
2022/03/06 02:37:35;;;;;;;13.98;7.78;;;0.00;87.80;;;;;;5087507;28;20210;-81
2022/03/06 02:40:07;;;;;;;10.85;8.63;;;0.00;88.00;;;;;;5086984;28;20227;-83
2022/03/06 02:42:35;;;;;;;10.55;8.13;;;0.00;88.30;;;;;;5087223;28;20240;-81
2022/03/06 02:45:07;;;;;;;13.68;7.78;;;0.00;88.30;;;;;;5087938;28;20205;-80
2022/03/06 02:47:34;;;;;;;12.07;9.75;;;0.00;88.60;;;;;;5086401;28;20201;-80
2022/03/06 02:50:02;;;;;;;11.95;8.18;;;0.00;89.00;;;;;;5087151;28;20621;-81
2022/03/06 02:52:29;;;;;;;16.42;9.13;;;-0.10;89.10;;;;;;5087214;28;20225;-79
2022/03/06 02:54:56;;;;;;;12.85;8.50;;;-0.30;89.40;;;;;;5087661;28;20209;-81
2022/03/06 02:57:24;;;;;;;15.90;9.55;;;-0.30;89.80;;;;;;5087264;28;20229;-81
2022/03/06 02:59:51;;;;;;;9.55;7.97;;;-0.40;90.00;;;;;;5089242;28;20201;-81
2022/03/06 03:02:17;;;;;;;12.05;8.30;;;-0.40;90.20;;;;;;5091046;28;20258;-81
2022/03/06 03:04:44;;;;;;;15.68;10.48;;;-0.40;90.30;;;;;;5091508;28;20216;-81
2022/03/06 03:07:11;;;;;;;9.75;7.60;;;-0.50;90.40;;;;;;5090659;28;20565;-80
2022/03/06 03:09:38;;;;;;;10.20;8.02;;;-0.50;90.50;;;;;;5091302;28;20232;-80
2022/03/06 03:12:06;;;;;;;10.30;7.85;;;-0.50;90.70;;;;;;5090881;28;20221;-81
2022/03/06 03:14:35;;;;;;;12.13;8.73;;;-0.50;90.70;;;;;;5091065;28;20217;-81
2022/03/06 03:17:03;;;;;;;15.43;10.02;;;-0.60;91.00;;;;;;5091799;28;20213;-81
2022/03/06 03:19:30;;;;;;;12.88;7.63;;;-0.60;91.10;;;;;;5091644;28;20193;-81
2022/03/06 03:21:57;;;;;;;13.23;9.55;;;-0.70;91.40;;;;;;5092767;28;20224;-81
2022/03/06 03:24:26;;;;;;;13.23;8.82;;;-0.70;91.60;;;;;;5090486;28;20193;-81
2022/03/06 03:26:53;;;;;;;11.82;8.15;;;-0.80;91.90;;;;;;5090585;28;20220;-80
2022/03/06 03:29:19;;;;;;;11.55;7.97;;;-0.70;92.30;;;;;;5093877;28;20201;-80
2022/03/06 03:31:48;;;;;;;15.43;9.18;;;-0.70;92.30;;;;;;5094114;28;20207;-80
2022/03/06 03:34:14;;;;;;;12.85;9.02;;;-0.80;92.70;;;;;;5094526;28;20224;-82
2022/03/06 03:36:42;;;;;;;11.02;7.55;;;-0.90;93.10;;;;;;5094651;28;20212;-81
2022/03/06 03:39:08;;;;;;;15.40;7.78;;;-0.90;93.10;;;;;;5093570;28;20268;-80
2022/03/06 03:41:36;;;;;;;13.25;8.93;;;-1.00;93.50;;;;;;5093711;28;20214;-81
2022/03/06 03:44:02;;;;;;;13.93;9.38;;;-0.90;93.70;;;;;;5093354;28;20210;-82
2022/03/06 03:46:29;;;;;;;16.50;10.07;;;-0.90;93.70;;;;;;5091524;28;20205;-82
2022/03/06 03:48:57;;;;;;;14.52;10.57;;;-0.90;93.70;;;;;;5091530;28;20205;-83
2022/03/06 03:51:24;;;;;;;15.77;9.07;;;-1.00;94.00;;;;;;5090637;28;20201;-82
2022/03/06 03:53:50;;;;;;;12.70;8.30;;;-1.00;94.20;;;;;;5091251;28;20228;-83
2022/03/06 03:56:17;;;;;;;10.13;7.90;;;-1.00;94.20;;;;;;5091138;28;20205;-82
2022/03/06 03:58:44;;;;;;;14.40;9.00;;;-1.00;94.40;;;;;;5090720;28;20205;-82
2022/03/06 04:01:11;;;;;;;12.02;8.65;;;-1.00;94.40;;;;;;5090052;28;20211;-82
2022/03/06 04:03:37;;;;;;;10.75;8.15;;;-1.00;94.50;;;;;;5091149;28;20225;-82
2022/03/06 04:06:05;;;;;;;11.48;9.52;;;-1.00;94.90;;;;;;5090757;28;20197;-82
2022/03/06 04:08:32;;;;;;;11.88;7.72;;;-0.90;94.80;;;;;;5091301;28;20209;-82
2022/03/06 04:10:59;;;;;;;12.77;9.15;;;-0.90;94.60;;;;;;5088922;28;20205;-82
2022/03/06 04:13:26;;;;;;;14.45;9.48;;;-0.90;94.60;;;;;;5089407;28;20221;-82
2022/03/06 04:15:53;;;;;;;11.48;7.90;;;-0.80;94.70;;;;;;5089502;28;20200;-82
2022/03/06 04:18:20;;;;;;;16.77;9.13;;;-0.90;94.60;;;;;;5089438;28;20209;-82
2022/03/06 04:20:46;;;;;;;18.88;9.18;;;-1.00;94.70;;;;;;5089974;28;20208;-82
2022/03/06 04:23:14;;;;;;;14.63;9.32;;;-1.00;94.70;;;;;;5089629;28;20588;-82
2022/03/06 04:25:41;;;;;;;13.35;9.65;;;-1.10;95.10;;;;;;5090206;28;20205;-82
2022/03/06 04:28:09;;;;;;;15.25;9.63;;;-1.10;95.20;;;;;;5078221;28;20220;-82
2022/03/06 04:30:36;;;;;;;16.17;9.40;;;-1.10;95.20;;;;;;5083927;28;20208;-82
2022/03/06 04:33:03;;;;;;;13.45;9.20;;;-1.10;95.40;;;;;;5090483;28;20224;-83
2022/03/06 04:35:29;;;;;;;16.50;9.93;;;-1.10;95.70;;;;;;5090464;28;20204;-81
2022/03/06 04:37:56;;;;;;;10.77;8.40;;;-1.10;95.70;;;;;;5090111;28;20205;-82
2022/03/06 04:40:24;;;;;;;17.30;9.88;;;-1.20;96.00;;;;;;5089475;28;20197;-82
2022/03/06 04:42:51;;;;;;;14.52;8.93;;;-1.20;96.20;;;;;;5122332;22;20231;-79
2022/03/06 04:45:18;;;;;;;9.70;8.52;;;-1.20;96.20;;;;;;5116156;28;20196;-79
2022/03/06 04:47:44;;;;;;;10.40;8.57;;;-1.20;96.30;;;;;;5116308;28;20205;-79
2022/03/06 04:50:11;;;;;;;18.40;10.48;;;-1.20;96.40;;;;;;5115613;28;20587;-79
2022/03/06 04:52:38;;;;;;;12.07;9.20;;;-1.20;96.60;;;;;;5115793;28;20227;-79
2022/03/06 04:55:06;;;;;;;13.82;9.32;;;-1.20;96.60;;;;;;5115678;28;20207;-79
2022/03/06 04:57:34;;;;;;;13.80;8.68;;;-1.20;96.70;;;;;;5116508;28;20613;-79
2022/03/06 05:00:01;;;;;;;15.50;9.52;;;-1.20;96.80;;;;;;5114683;28;20222;-79
2022/03/06 05:02:27;;;;;;;13.98;10.10;;;-1.10;96.70;;;;;;5103971;28;20225;-78
2022/03/06 05:04:54;;;;;;;12.38;8.98;;;-1.20;96.50;;;;;;5110275;28;20204;-78
2022/03/06 05:07:21;;;;;;;13.52;9.27;;;-1.40;96.70;;;;;;5110676;28;20204;-79
2022/03/06 05:09:48;;;;;;;14.27;9.90;;;-1.30;97.00;;;;;;5099850;28;20212;-79
2022/03/06 05:12:14;;;;;;;14.30;8.55;;;-1.30;96.90;;;;;;5103499;27;20220;-78
2022/03/06 05:14:42;;;;;;;12.80;9.55;;;-1.30;97.00;;;;;;5104274;28;20208;-78
2022/03/06 05:17:09;;;;;;;21.40;10.32;;;-1.40;97.00;;;;;;5131949;28;20214;-78
2022/03/06 05:19:36;;;;;;;16.83;9.10;;;-1.40;97.50;;;;;;5127406;28;20208;-78
2022/03/06 05:22:02;;;;;;;11.52;8.55;;;-1.50;97.60;;;;;;5107809;28;20212;-79
2022/03/06 05:24:29;;;;;;;14.55;10.80;;;-1.40;97.80;;;;;;5100452;28;20684;-79
2022/03/06 05:26:56;;;;;;;16.63;9.27;;;-1.50;97.70;;;;;;5120596;28;20396;-78
2022/03/06 05:29:22;;;;;;;15.77;9.45;;;-1.50;98.00;;;;;;5125701;28;20204;-78
2022/03/06 05:31:50;;;;;;;14.35;10.07;;;-1.70;98.50;;;;;;5116792;28;20487;-78
2022/03/06 05:34:17;;;;;;;12.25;9.82;;;-1.60;98.60;;;;;;5115960;28;20227;-79
2022/03/06 05:36:44;;;;;;;10.93;9.18;;;-1.60;98.60;;;;;;5095569;28;20230;-79
2022/03/06 05:39:10;;;;;;;13.38;10.20;;;-1.60;98.80;;;;;;5095666;28;20253;-79
2022/03/06 05:41:40;;;;;;;12.32;9.10;;;-1.60;98.80;;;;;;5100634;28;20199;-79
2022/03/06 05:44:07;;;;;;;12.05;8.35;;;-1.70;99.30;;;;;;5115271;28;20236;-79
2022/03/06 05:46:33;;;;;;;12.25;9.15;;;-1.60;99.40;;;;;;5114921;28;20557;-79
2022/03/06 05:49:01;;;;;;;13.85;9.45;;;-1.50;99.40;;;;;;5105455;28;20200;-79
2022/03/06 05:51:28;;;;;;;14.88;9.20;;;-1.50;99.10;;;;;;5099329;28;20256;-79
2022/03/06 05:53:55;;;;;;;13.77;10.05;;;-1.50;99.20;;;;;;5114605;28;20575;-79
2022/03/06 05:56:21;;;;;;;13.88;12.00;;;-1.40;99.20;;;;;;5094838;28;20211;-79
2022/03/06 05:58:49;;;;;;;14.40;9.50;;;-1.40;99.00;;;;;;5094944;28;20250;-79
2022/03/06 06:01:17;;;;;;;16.83;9.30;;;-1.30;98.90;;;;;;5111809;28;20225;-79
2022/03/06 06:03:43;;;;;;;13.88;9.32;;;-1.20;98.80;;;;;;5114923;28;20223;-79
2022/03/06 06:06:12;;;;;;;20.17;10.65;;;-1.20;98.90;;;;;;5102391;28;20669;-79
2022/03/06 06:08:39;;;;;;;17.20;10.75;;;-1.10;98.90;;;;;;5115092;28;20225;-79
2022/03/06 06:11:06;;;;;;;12.90;10.32;;;-1.10;98.80;;;;;;5104349;28;20204;-79
2022/03/06 06:13:33;;;;;;;11.90;9.25;;;-1.20;98.70;;;;;;5114624;28;20228;-79
2022/03/06 06:16:02;;;;;;;17.60;11.48;;;-1.10;98.80;;;;;;5098523;28;20200;-79
2022/03/06 06:18:30;;;;;;;18.35;12.25;;;-1.10;98.90;;;;;;5094744;28;20668;-79
2022/03/06 06:20:57;;;;;;;13.68;10.88;;;-1.00;98.90;;;;;;5109364;28;20692;-79
2022/03/06 06:23:26;;;;;;;16.52;11.27;;;-1.10;98.90;;;;;;5094347;28;20555;-79
2022/03/06 06:25:52;;;;;;;12.70;9.57;;;-1.10;99.00;;;;;;5108820;28;20236;-79
2022/03/06 06:28:19;;;;;;;13.40;9.63;;;-1.00;99.30;;;;;;5114774;28;20215;-79
2022/03/06 06:30:46;;;;;;;14.93;10.30;;;-1.10;99.30;;;;;;5102750;28;20207;-79
2022/03/06 06:33:12;;;;;;;14.93;8.90;;;-1.10;99.40;;;;;;5112484;28;20220;-79
2022/03/06 06:35:39;;;;;;;14.60;10.75;;;-1.10;99.70;;;;;;5106860;28;20634;-79
2022/03/06 06:38:06;;;;;;;13.20;9.45;;;-1.10;99.90;;;;;;5098238;28;20204;-79
2022/03/06 06:40:35;;;;;;;15.05;10.18;;;-1.00;99.90;;;;;;5107335;28;20207;-79
2022/03/06 06:43:02;;;;;;;17.05;10.45;;;-0.90;99.90;;;;;;5101548;28;20783;-79
2022/03/06 06:45:30;;;;;;;13.23;9.20;;;-0.80;99.90;;;;;;5107128;28;20218;-79
2022/03/06 06:47:56;;;;;;;14.85;9.57;;;-0.70;99.90;;;;;;5115150;28;20207;-79
2022/03/06 06:50:23;;;;;;;13.38;9.55;;;-0.70;99.90;;;;;;5118296;28;20256;-79
2022/03/06 06:52:50;;;;;;;11.95;10.32;;;-0.50;99.90;;;;;;5104119;27;20229;-79
2022/03/06 06:55:17;;;;;;;14.93;9.75;;;-0.50;99.90;;;;;;5100252;28;20208;-79
2022/03/06 06:57:45;;;;;;;13.90;10.02;;;-0.40;99.90;;;;;;5098360;28;20840;-79
2022/03/06 07:00:12;;;;;;;16.98;9.45;;;-0.30;99.90;;;;;;5099554;28;20249;-79
2022/03/06 07:02:40;;;;;;;13.63;10.02;;;-0.30;99.90;;;;;;5111318;28;20226;-79
2022/03/06 07:05:08;;;;;;;20.60;11.35;;;-0.20;99.90;;;;;;5108896;28;20260;-79
2022/03/06 07:07:34;;;;;;;13.07;10.60;;;0.00;99.90;;;;;;5098680;28;20583;-79
2022/03/06 07:10:01;;;;;;;14.30;11.48;;;0.00;99.80;;;;;;5106996;28;20197;-79
2022/03/06 07:12:28;;;;;;;13.90;10.77;;;0.10;99.50;;;;;;5106623;28;20591;-79
2022/03/06 07:14:56;;;;;;;11.07;9.90;;;0.20;99.30;;;;;;5101796;28;20217;-79
2022/03/06 07:17:22;;;;;;;14.30;11.02;;;0.20;99.00;;;;;;5099724;28;20211;-79
2022/03/06 07:19:49;;;;;;;12.82;9.15;;;0.30;99.00;;;;;;5111498;28;20566;-79
2022/03/06 07:22:16;;;;;;;13.65;9.93;;;0.30;98.90;;;;;;5117510;28;20231;-79
2022/03/06 07:24:43;;;;;;;12.65;10.15;;;0.40;99.30;;;;;;5110619;27;20199;-79
2022/03/06 07:27:09;;;;;;;13.85;9.27;;;0.50;99.90;;;;;;5097981;28;20208;-79
2022/03/06 07:29:36;;;;;;;12.88;10.25;;;0.70;99.90;;;;;;5105575;28;20200;-79
2022/03/06 07:32:05;;;;;;;15.07;10.80;;;0.80;99.90;;;;;;5107030;28;20203;-79
2022/03/06 07:34:32;;;;;;;17.30;13.75;;;1.00;99.00;;;;;;5104367;28;20629;-79
2022/03/06 07:36:59;;;;;;;17.60;10.82;;;1.10;98.30;;;;;;5119028;28;20212;-79
2022/03/06 07:39:25;;;;;;;12.90;10.48;;;1.20;97.80;;;;;;5118287;28;20201;-79
2022/03/06 07:41:52;;;;;;;15.07;10.38;;;1.40;97.00;;;;;;5107859;28;20206;-79
2022/03/06 07:44:19;;;;;;;13.88;11.40;;;1.50;96.50;;;;;;5101005;28;20611;-79
2022/03/06 07:46:45;;;;;;;16.63;10.45;;;1.50;96.30;;;;;;5099032;28;20215;-79
2022/03/06 07:49:14;;;;;;;16.00;11.52;;;1.50;96.30;;;;;;5100337;28;20203;-79
2022/03/06 07:51:40;;;;;;;14.27;10.30;;;1.70;96.20;;;;;;5105339;28;20688;-79
2022/03/06 07:54:13;;;;;;;15.48;12.05;;;1.80;96.00;;;;;;5118215;28;20231;-79
2022/03/06 07:56:40;;;;;;;14.52;10.95;;;1.90;95.60;;;;;;5111241;28;20200;-79
2022/03/06 07:59:06;;;;;;;13.18;11.07;;;2.00;95.50;;;;;;5098968;28;20697;-79
2022/03/06 08:01:33;;;;;;;17.23;12.18;;;2.00;95.20;;;;;;5105277;28;20274;-79
2022/03/06 08:04:00;;;;;;;16.15;11.05;;;2.20;95.10;;;;;;5118802;28;20230;-79
2022/03/06 08:06:28;;;;;;;16.70;11.30;;;2.30;94.90;;;;;;5110987;28;20223;-79
2022/03/06 08:08:55;;;;;;;15.45;11.00;;;2.30;94.60;;;;;;5099296;28;20284;-80
2022/03/06 08:11:21;;;;;;;15.13;11.32;;;2.40;94.30;;;;;;5102575;28;20203;-79
2022/03/06 08:13:48;;;;;;;17.05;11.55;;;2.40;94.20;;;;;;5106882;28;20698;-79
2022/03/06 08:16:15;;;;;;;12.25;9.25;;;2.50;94.10;;;;;;5106089;28;20200;-79
2022/03/06 08:18:41;;;;;;;16.25;12.00;;;2.60;93.40;;;;;;5106687;28;20198;-79
2022/03/06 08:21:08;;;;;;;14.40;11.95;;;2.60;93.20;;;;;;5105005;28;20198;-79
2022/03/06 08:23:36;;;;;;;14.77;11.35;;;2.60;93.20;;;;;;5106764;28;20240;-79
2022/03/06 08:26:03;;;;;;;13.65;12.23;;;2.70;93.00;;;;;;5102131;28;20203;-79
2022/03/06 08:28:31;;;;;;;14.90;11.02;;;2.80;92.60;;;;;;5109449;28;20561;-79
2022/03/06 08:30:57;;;;;;;14.95;11.10;;;2.90;92.40;;;;;;5114957;28;20202;-79
2022/03/06 08:33:24;;;;;;;17.73;11.85;;;3.00;92.40;;;;;;5116180;28;20288;-79
2022/03/06 08:35:51;;;;;;;15.35;11.65;;;3.10;91.70;;;;;;5113904;28;20233;-79
2022/03/06 08:38:18;;;;;;;14.63;11.07;;;3.20;91.20;;;;;;5113083;28;20209;-79
2022/03/06 08:40:46;;;;;;;15.00;11.75;;;3.10;91.00;;;;;;5098057;28;20207;-79
2022/03/06 08:43:12;;;;;;;21.17;11.73;;;3.10;90.90;;;;;;5115441;28;20239;-79
2022/03/06 08:45:39;;;;;;;15.15;11.73;;;3.20;91.00;;;;;;5111017;27;20678;-79
2022/03/06 08:48:06;;;;;;;17.10;12.43;;;3.30;90.90;;;;;;5115702;28;20218;-79
2022/03/06 08:50:33;;;;;;;12.35;10.68;;;3.20;90.40;;;;;;5100496;28;20693;-79
2022/03/06 08:52:59;;;;;;;14.85;12.02;;;3.30;90.10;;;;;;5115467;28;20686;-79
2022/03/06 08:55:26;;;;;;;16.58;12.95;;;3.40;89.60;;;;;;5102309;28;20220;-79
2022/03/06 08:57:54;;;;;;;16.55;10.75;;;3.40;89.20;;;;;;5095338;28;20215;-79
2022/03/06 09:00:21;;;;;;;13.80;10.50;;;3.40;88.70;;;;;;5103625;28;20196;-79
2022/03/06 09:02:48;;;;;;;15.05;10.25;;;3.40;89.20;;;;;;5105037;28;20219;-79
2022/03/06 09:05:14;;;;;;;12.43;9.90;;;3.60;88.70;;;;;;5103883;28;20210;-79
2022/03/06 09:07:41;;;;;;;16.63;12.30;;;3.60;88.40;;;;;;5105822;28;20695;-78
2022/03/06 09:10:09;;;;;;;13.63;9.85;;;3.70;86.50;;;;;;5105159;28;20214;-79
2022/03/06 09:12:36;;;;;;;15.60;10.85;;;3.70;87.30;;;;;;5103478;28;20215;-79
2022/03/06 09:15:05;;;;;;;15.30;11.73;;;3.70;86.40;;;;;;5103143;28;20212;-79
2022/03/06 09:17:32;;;;;;;11.93;9.02;;;3.80;85.80;;;;;;5103383;28;20203;-79
2022/03/06 09:19:58;;;;;;;15.32;10.30;;;3.90;84.30;;;;;;5104047;28;20229;-79
2022/03/06 09:22:25;;;;;;;12.90;9.90;;;3.90;84.60;;;;;;5113435;28;20220;-79
2022/03/06 09:24:52;;;;;;;11.25;9.13;;;4.00;82.80;;;;;;5105788;28;20662;-80
2022/03/06 09:27:19;;;;;;;11.18;9.02;;;4.00;80.80;;;;;;5095379;28;20200;-79
2022/03/06 09:29:45;;;;;;;9.80;8.20;;;4.00;80.70;;;;;;5097700;28;20200;-81
2022/03/06 09:34:49;;;;;;;13.57;9.63;;;4.00;80.00;;;;;;1414160;26;20219;-81
2022/03/06 09:37:16;;;;;;;14.55;9.38;;;4.00;80.60;;;;;;5097135;28;20189;-79
2022/03/06 09:39:42;;;;;;;12.45;9.32;;;4.10;81.20;;;;;;5105307;28;20658;-78
2022/03/06 09:44:47;;;;;;;13.55;9.85;;;4.40;80.10;;;;;;4595648;22;20243;-79
2022/03/06 09:47:14;;;;;;;15.27;9.57;;;4.60;79.10;;;;;;5076575;28;20201;-80
2022/03/06 09:49:44;;;;;;;12.13;9.23;;;4.70;79.20;;;;;;5076750;28;20215;-80
2022/03/06 09:52:12;;;;;;;14.77;9.80;;;4.70;78.60;;;;;;5076450;28;20209;-80
2022/03/06 09:54:40;;;;;;;14.52;10.45;;;4.80;77.70;;;;;;5076796;28;20229;-80
2022/03/06 09:57:07;;;;;;;12.23;8.70;;;4.90;77.30;;;;;;5076940;28;20204;-80
2022/03/06 09:59:34;;;;;;;11.73;8.93;;;4.90;77.70;;;;;;5076953;28;20221;-80
2022/03/06 10:02:01;;;;;;;13.95;10.90;;;5.10;77.40;;;;;;5075811;28;20204;-80
2022/03/06 10:04:30;;;;;;;12.57;10.55;;;5.20;76.90;;;;;;5078635;28;20197;-79
2022/03/06 10:07:05;;;;;;;18.45;11.27;;;5.40;75.60;;;;;;5086528;28;20201;-80
2022/03/06 10:09:34;;;;;;;12.82;8.70;;;5.50;74.90;;;;;;5088115;28;20211;-80
2022/03/06 10:12:17;;;;;;;11.65;10.60;;;5.60;75.70;;;;;;5077276;28;20312;-81
2022/03/06 10:14:44;;;;;;;12.30;10.95;;;5.80;74.90;;;;;;5068120;28;20227;-80
2022/03/06 10:17:15;;;;;;;14.02;10.23;;;6.10;72.10;;;;;;5087135;28;20211;-80
2022/03/06 10:20:04;;;;;;;15.27;9.95;;;6.30;73.30;;;;;;5093875;28;20185;-80
2022/03/06 10:22:33;;;;;;;10.93;9.20;;;6.60;74.70;;;;;;5076233;28;20217;-81
2022/03/06 10:25:05;;;;;;;13.43;10.77;;;7.00;72.10;;;;;;5072697;28;20219;-81
2022/03/06 10:27:51;;;;;;;10.80;8.95;;;7.60;70.10;;;;;;5077810;28;20202;-81
2022/03/06 10:30:26;;;;;;;9.77;8.80;;;8.00;66.50;;;;;;5084280;28;20205;-82
2022/03/06 10:32:53;;;;;;;13.27;9.83;;;8.40;65.40;;;;;;5094349;28;20283;-81
2022/03/06 10:35:20;;;;;;;11.97;8.80;;;8.80;62.10;;;;;;5078489;28;20492;-81
2022/03/06 10:37:47;;;;;;;13.30;10.57;;;9.00;59.50;;;;;;5075949;28;20453;-81
2022/03/06 10:40:15;;;;;;;14.17;10.20;;;8.90;58.50;;;;;;5070147;28;20451;-82
2022/03/06 10:45:24;;;;;;;12.27;10.80;;;8.60;56.90;;;;;;5397095;22;20488;-79
2022/03/06 10:47:51;;;;;;;13.15;10.63;;;8.30;56.70;;;;;;5087777;28;20449;-79
2022/03/06 10:50:22;;;;;;;11.20;9.98;;;7.90;57.10;;;;;;5085613;28;20193;-81
2022/03/06 10:52:53;;;;;;;11.18;10.00;;;7.80;57.60;;;;;;5087820;28;20252;-79
2022/03/06 10:55:32;;;;;;;13.65;10.15;;;7.70;56.80;;;;;;5096001;28;20224;-81
2022/03/06 10:57:59;;;;;;;13.18;10.45;;;7.60;56.90;;;;;;5097942;28;20255;-82
2022/03/06 11:00:27;;;;;;;9.60;8.70;;;7.30;56.30;;;;;;5100139;28;20196;-82
2022/03/06 11:02:55;;;;;;;11.02;10.02;;;7.50;56.80;;;;;;5099892;28;20198;-81
2022/03/06 11:05:22;;;;;;;14.32;10.85;;;7.60;57.00;;;;;;5096135;28;20216;-82
2022/03/06 11:07:49;;;;;;;12.77;9.75;;;7.70;57.00;;;;;;5092808;28;20614;-82
2022/03/06 11:10:16;;;;;;;13.95;10.50;;;7.80;56.50;;;;;;5100036;28;20201;-84
2022/03/06 11:12:45;;;;;;;12.75;9.32;;;8.00;56.60;;;;;;5100478;28;20194;-81
2022/03/06 11:15:12;;;;;;;10.60;9.50;;;8.00;56.00;;;;;;5097760;28;20285;-80
2022/03/06 11:17:39;;;;;;;11.15;8.90;;;8.10;55.90;;;;;;5098134;28;20638;-81
2022/03/06 11:20:06;;;;;;;11.98;9.52;;;8.10;54.80;;;;;;5101648;28;20211;-81
2022/03/06 11:22:39;;;;;;;12.82;9.35;;;8.20;55.30;;;;;;5104408;28;20273;-81
2022/03/06 11:25:11;;;;;;;13.38;10.02;;;8.20;55.60;;;;;;5102732;28;20228;-81
2022/03/06 11:27:45;;;;;;;11.38;10.00;;;7.90;54.80;;;;;;5104251;28;20196;-80
2022/03/06 11:30:20;;;;;;;10.90;9.10;;;8.00;55.30;;;;;;5102623;28;20210;-81
2022/03/06 11:32:58;;;;;;;11.82;9.23;;;8.20;55.10;;;;;;5104084;28;20602;-81
2022/03/06 11:36:08;;;;;;;11.95;9.73;;;8.30;55.00;;;;;;5105071;28;20229;-84
2022/03/06 11:38:46;;;;;;;11.20;9.43;;;7.90;54.30;;;;;;5105332;28;20196;-85
2022/03/06 11:41:26;;;;;;;14.23;10.25;;;8.10;55.10;;;;;;5105503;28;20262;-88
2022/03/06 11:46:29;;;;;;;11.93;9.30;;;8.30;53.80;;;;;;5634100;22;20316;-83
2022/03/06 11:49:07;;;;;;;11.30;10.20;;;8.30;53.60;;;;;;5122872;28;20492;-85
2022/03/06 11:51:34;;;;;;;13.70;9.83;;;8.30;54.30;;;;;;5104223;28;20448;-84
2022/03/06 11:54:03;;;;;;;12.13;10.85;;;8.40;53.80;;;;;;5104665;28;20463;-84
2022/03/06 11:56:55;;;;;;;12.33;9.37;;;8.40;54.00;;;;;;5104500;28;20209;-84
2022/03/06 15:04:30;;;;;;;8.63;7.80;;;8.80;44.50;;;;;;1283047;26;20473;-83
2022/03/06 15:19:59;;;;;;;10.10;9.20;;;9.20;45.10;;;;;;5056676;28;20567;-81
2022/03/06 15:29:13;;;;;;;10.10;9.10;;;10.70;41.80;;;;;;5094887;22;20506;-84
2022/03/06 15:31:41;;;;;;;9.77;8.30;;;10.10;41.60;;;;;;5072515;28;20460;-84
2022/03/06 15:34:07;;;;;;;10.27;8.90;;;9.60;43.50;;;;;;5071414;28;20479;-84
2022/03/06 15:36:34;;;;;;;9.53;8.73;;;9.10;44.30;;;;;;5072195;28;20451;-84
2022/03/06 15:39:01;;;;;;;11.75;8.38;;;8.80;45.00;;;;;;5087583;28;20462;-83
2022/03/06 15:41:28;;;;;;;10.73;9.02;;;7.70;45.80;;;;;;5097123;28;20193;-82
2022/03/06 15:43:55;;;;;;;9.63;8.15;;;7.10;47.50;;;;;;5102471;28;20199;-83
2022/03/06 15:46:23;;;;;;;11.18;9.00;;;7.20;48.90;;;;;;5084719;28;20217;-82
2022/03/06 15:48:50;;;;;;;9.07;8.23;;;7.00;47.80;;;;;;5084308;28;20244;-83
2022/03/06 15:51:16;;;;;;;9.15;8.05;;;6.90;48.40;;;;;;5086480;28;20221;-83
2022/03/06 15:53:44;;;;;;;9.55;8.30;;;6.70;48.90;;;;;;5083688;28;20208;-82
2022/03/06 15:56:11;;;;;;;11.15;9.70;;;6.50;49.20;;;;;;5084954;28;20202;-84
2022/03/06 15:58:38;;;;;;;8.63;7.82;;;6.60;49.50;;;;;;5087337;28;20228;-83
2022/03/06 16:01:06;;;;;;;8.88;8.05;;;6.50;49.80;;;;;;5086932;28;20197;-83
2022/03/06 16:03:34;;;;;;;8.73;7.93;;;6.20;49.90;;;;;;5089891;28;20209;-83
2022/03/06 16:06:01;;;;;;;8.90;8.00;;;6.20;50.20;;;;;;5089353;28;20228;-82
2022/03/06 16:08:27;;;;;;;9.32;7.82;;;6.30;50.70;;;;;;5083557;28;20213;-82
2022/03/06 16:10:54;;;;;;;9.88;8.40;;;6.30;50.60;;;;;;5083203;28;20212;-82
2022/03/06 16:13:21;;;;;;;10.10;8.38;;;6.10;50.40;;;;;;5081414;28;20472;-83
2022/03/06 16:15:48;;;;;;;9.23;8.32;;;6.20;50.80;;;;;;5080334;28;20211;-83